createdAt,value
2022-08-01T18:07:04.937Z,99707.94
2022-08-01T18:09:09.696Z,99717.00
2022-08-01T18:11:13.326Z,99719.00
2022-08-01T18:13:17.557Z,99723.47
2022-08-01T18:15:26.934Z,99713.75
2022-08-01T18:17:28.914Z,99723.47
2022-08-01T18:19:30.783Z,99717.75
2022-08-01T18:21:33.705Z,99728.28
2022-08-01T18:23:35.883Z,99724.19
2022-08-01T18:25:38.398Z,99729.00
2022-08-01T18:28:22.584Z,99718.50
2022-08-01T18:30:01.619Z,99719.44
2022-08-01T18:32:04.562Z,99720.41
2022-08-01T18:34:06.629Z,99726.25
2022-08-01T18:36:09.770Z,99722.13
2022-08-01T18:38:19.487Z,99733.56
2022-08-01T18:40:23.164Z,99732.44
2022-08-01T18:42:24.890Z,99730.38
2022-08-01T18:44:26.612Z,99730.25
2022-08-01T18:46:28.213Z,99730.81
2022-08-01T18:48:30.015Z,99737.16
2022-08-01T18:50:31.635Z,99731.94
2022-08-01T18:52:33.336Z,99731.44
2022-08-01T18:54:35.010Z,99744.88
2022-08-01T18:56:36.654Z,99735.38
2022-08-01T18:58:39.360Z,99734.34
2022-08-01T19:00:42.241Z,99739.03
2022-08-01T19:02:43.916Z,99744.28
2022-08-01T19:04:46.586Z,99753.09
2022-08-01T19:06:48.258Z,99745.72
2022-08-01T19:08:49.939Z,99755.72
2022-08-01T19:10:51.669Z,99750.94
2022-08-01T19:12:53.304Z,99757.94
2022-08-01T19:14:54.933Z,99754.03
2022-08-01T19:16:56.911Z,99760.63
2022-08-01T19:18:58.621Z,99769.31
2022-08-01T19:21:03.329Z,99761.09
2022-08-01T19:23:25.611Z,99754.69
2022-08-01T19:25:27.825Z,99763.50
2022-08-01T19:27:32.166Z,99765.72
2022-08-01T19:29:36.492Z,99764.38
2022-08-01T19:31:43.279Z,99758.81
2022-08-01T19:33:47.520Z,99767.56
2022-08-01T19:35:52.536Z,99767.50
2022-08-01T19:37:56.994Z,99770.72
2022-08-01T19:39:59.343Z,99780.34
2022-08-01T19:42:01.007Z,99780.75
2022-08-01T19:44:03.585Z,99785.97
2022-08-01T19:46:05.771Z,99790.63
2022-08-01T20:00:27.877Z,99781.72
2022-08-01T20:02:31.092Z,99795.41
2022-08-01T20:04:33.922Z,99800.53
2022-08-01T20:06:35.605Z,99798.06
2022-08-01T20:08:38.010Z,99797.47
2022-08-01T20:10:40.582Z,99800.34
2022-08-01T20:12:42.453Z,99799.84
2022-08-01T20:14:44.951Z,99805.06
2022-08-01T20:16:47.482Z,99806.97
2022-08-01T20:18:49.352Z,99806.63
2022-08-01T20:20:52.374Z,99806.22
2022-08-01T20:22:56.719Z,99811.53
2022-08-01T20:24:59.701Z,99808.44
2022-08-01T20:27:01.441Z,99812.97
2022-08-01T20:29:04.269Z,99824.06
2022-08-01T20:31:07.937Z,99817.38
2022-08-01T20:33:12.141Z,99828.28
2022-08-01T20:35:13.931Z,99825.97
2022-08-01T20:38:04.171Z,99825.25
2022-08-01T20:39:43.929Z,99804.34
2022-08-01T20:42:00.147Z,99816.91
2022-08-01T20:44:04.351Z,99828.16
2022-08-01T20:46:06.386Z,99826.72
2022-08-01T20:48:08.513Z,99823.72
2022-08-01T20:50:53.357Z,99817.09
2022-08-01T20:52:52.921Z,99826.50
2022-08-01T20:54:55.893Z,99823.28
2022-08-01T20:57:05.691Z,99818.78
2022-08-01T20:59:56.468Z,99822.44
2022-08-01T21:02:04.364Z,99806.72
2022-08-01T21:04:08.714Z,99810.22
2022-08-01T21:06:14.802Z,99809.91
2022-08-01T21:08:26.397Z,99808.50
2022-08-01T21:10:29.561Z,99810.56
2022-08-01T21:13:00.263Z,99802.53
2022-08-01T21:15:03.484Z,99820.13
2022-08-01T21:17:10.747Z,99821.69
2022-08-01T21:19:20.216Z,99811.88
2022-08-01T21:21:25.907Z,99830.00
2022-08-01T21:23:39.656Z,99834.06
2022-08-01T21:25:43.446Z,99829.44
2022-08-01T21:27:48.385Z,99833.25
2022-08-01T21:29:50.988Z,99817.38
2022-08-01T21:32:11.685Z,99824.50
2022-08-01T21:34:16.385Z,99816.31
2022-08-01T21:36:19.381Z,99819.59
2022-08-01T21:38:22.661Z,99818.16
2022-08-01T21:40:25.155Z,99817.13
2022-08-01T21:42:28.414Z,99821.78
2022-08-01T21:44:31.329Z,99829.44
2022-08-01T21:46:34.009Z,99828.31
2022-08-01T21:48:37.513Z,99828.91
2022-08-01T21:50:57.213Z,99830.53
2022-08-01T21:53:53.981Z,99828.91
2022-08-01T21:56:14.464Z,99837.53
2022-08-01T21:58:32.119Z,99840.31
2022-08-01T22:00:38.694Z,99838.41
2022-08-01T22:03:08.125Z,99829.19
2022-08-01T22:05:12.511Z,99842.78
2022-08-01T22:07:18.135Z,99846.38
2022-08-01T22:09:21.930Z,99848.53
2022-08-01T22:11:28.377Z,99844.72
2022-08-01T22:13:30.125Z,99842.53
2022-08-01T22:15:44.952Z,99851.50
2022-08-01T22:17:54.441Z,99849.38
2022-08-01T22:19:56.408Z,99862.19
2022-08-01T22:21:58.775Z,99851.94
2022-08-01T22:24:02.703Z,99853.88
2022-08-01T22:26:09.976Z,99839.06
2022-08-01T22:28:16.069Z,99843.22
2022-08-01T22:30:17.973Z,99840.88
2022-08-01T22:32:20.110Z,99850.69
2022-08-01T22:34:21.781Z,99856.47
2022-08-01T22:36:23.538Z,99853.50
2022-08-01T22:38:25.208Z,99867.97
2022-08-01T22:40:26.935Z,99865.50
2022-08-01T22:42:37.527Z,99879.72
2022-08-01T22:45:08.025Z,99873.72
2022-08-01T22:47:19.708Z,99872.63
2022-08-01T22:49:42.265Z,99874.25
2022-08-01T22:52:14.488Z,99872.66
2022-08-01T22:54:23.433Z,99876.97
2022-08-01T22:56:25.003Z,99878.56
2022-08-01T22:58:33.742Z,99876.56
2022-08-01T23:00:35.905Z,99879.00
2022-08-01T23:02:40.783Z,99871.34
2022-08-01T23:04:47.846Z,99874.94
2022-08-01T23:06:53.988Z,99884.81
2022-08-01T23:08:56.060Z,99871.88
2022-08-01T23:11:00.268Z,99859.38
2022-08-01T23:13:03.626Z,99884.16
2022-08-01T23:15:05.998Z,99856.41
2022-08-01T23:17:26.899Z,99859.75
2022-08-01T23:19:33.604Z,99844.50
2022-08-01T23:21:38.744Z,99823.47
2022-08-01T23:23:44.718Z,99820.41
2022-08-01T23:25:48.513Z,99826.28
2022-08-01T23:28:04.473Z,99847.97
2022-08-01T23:30:08.098Z,99848.69
2022-08-01T23:32:09.677Z,99854.97
2022-08-01T23:34:11.255Z,99860.66
2022-08-01T23:36:14.739Z,99861.41
2022-08-01T23:38:17.132Z,99861.19
2022-08-01T23:40:19.774Z,99869.03
2022-08-01T23:42:21.492Z,99839.00
2022-08-01T23:44:23.132Z,99865.06
2022-08-01T23:46:24.743Z,99844.28
2022-08-01T23:48:26.397Z,99855.81
2022-08-01T23:50:28.483Z,99840.44
2022-08-01T23:52:32.142Z,99853.56
2022-08-01T23:54:34.242Z,99856.69
2022-08-01T23:56:37.619Z,99869.47
2022-08-01T23:58:39.277Z,99869.59
